Time;durP1;ratioP1;P1;durP2;ratioP2;P2;SDS_P1;SDS_P2;PMS_P1;PMS_P2;Temp;Humidity;BMP_temperature;BMP_pressure;BME280_temperature;BME280_humidity;BME280_pressure;Samples;Min_cycle;Max_cycle;Signal;HPM_P1;HPM_P2
2022/06/19 00:00:42;;;;;;;14.90;2.45;;;14.70;99.90;;;;;;5072446;28;20039;-63
2022/06/19 00:03:15;;;;;;;17.67;2.78;;;14.70;99.90;;;;;;5072712;28;20082;-63
2022/06/19 00:05:41;;;;;;;13.73;2.83;;;14.60;99.90;;;;;;5071093;28;20041;-64
2022/06/19 00:08:07;;;;;;;14.52;2.58;;;14.60;99.90;;;;;;5071060;28;20402;-63
2022/06/19 00:10:32;;;;;;;19.65;2.83;;;14.60;99.90;;;;;;5072401;28;20089;-65
2022/06/19 00:12:58;;;;;;;12.80;2.00;;;14.60;99.90;;;;;;5070813;28;20117;-63
2022/06/19 00:15:24;;;;;;;14.48;2.53;;;14.60;99.90;;;;;;5072155;28;20115;-62
2022/06/19 00:17:49;;;;;;;15.57;2.50;;;14.60;99.90;;;;;;5069732;28;20052;-63
2022/06/19 00:20:15;;;;;;;14.10;2.50;;;14.60;99.90;;;;;;5070593;28;20040;-63
2022/06/19 00:22:41;;;;;;;16.00;2.47;;;14.60;99.90;;;;;;5072410;28;20387;-63
2022/06/19 00:25:08;;;;;;;14.23;2.65;;;14.50;99.90;;;;;;5070516;28;20041;-63
2022/06/19 00:27:38;;;;;;;13.23;2.60;;;14.50;99.90;;;;;;5071652;28;20089;-64
2022/06/19 00:30:07;;;;;;;14.55;3.10;;;14.50;99.90;;;;;;5072250;28;20040;-63
2022/06/19 00:32:33;;;;;;;12.25;2.65;;;14.50;99.90;;;;;;5070750;28;20048;-64
2022/06/19 00:34:58;;;;;;;13.05;2.22;;;14.50;99.90;;;;;;5072185;28;20048;-63
2022/06/19 00:37:24;;;;;;;13.50;2.40;;;14.50;99.90;;;;;;5069144;28;20795;-64
2022/06/19 00:39:51;;;;;;;15.50;3.35;;;14.50;99.90;;;;;;5070971;28;20071;-63
2022/06/19 00:42:17;;;;;;;13.60;2.22;;;14.50;99.90;;;;;;5071998;28;20032;-63
2022/06/19 00:44:43;;;;;;;12.27;2.40;;;14.50;99.90;;;;;;5070725;28;20045;-63
2022/06/19 00:47:21;;;;;;;16.63;2.53;;;14.50;99.90;;;;;;5071932;28;20036;-63
2022/06/19 00:50:12;;;;;;;8.98;1.95;;;14.50;99.90;;;;;;5071077;28;20068;-63
2022/06/19 00:52:39;;;;;;;17.40;2.55;;;14.60;99.90;;;;;;5070462;28;20044;-63
2022/06/19 00:55:16;;;;;;;14.20;2.42;;;14.60;99.90;;;;;;5071877;28;20086;-62
2022/06/19 00:57:47;;;;;;;13.68;2.70;;;14.60;99.90;;;;;;5071563;28;20036;-63
2022/06/19 01:00:16;;;;;;;15.90;2.38;;;14.50;99.90;;;;;;5071661;28;20037;-63
2022/06/19 01:02:44;;;;;;;15.00;2.42;;;14.60;99.90;;;;;;5070271;28;20045;-63
2022/06/19 01:05:12;;;;;;;12.35;2.53;;;14.60;99.90;;;;;;5070695;28;20048;-62
2022/06/19 01:07:41;;;;;;;12.27;2.70;;;14.60;99.90;;;;;;5071636;28;20396;-63
2022/06/19 01:10:07;;;;;;;14.80;2.53;;;14.50;99.90;;;;;;5071281;28;20407;-62
2022/06/19 01:12:33;;;;;;;17.17;3.13;;;14.60;99.90;;;;;;5071396;28;20108;-62
2022/06/19 01:15:04;;;;;;;12.68;2.40;;;14.60;99.90;;;;;;5070026;28;20032;-63
2022/06/19 01:17:34;;;;;;;14.33;2.67;;;14.60;99.90;;;;;;5070139;28;20048;-63
2022/06/19 01:20:03;;;;;;;16.15;2.53;;;14.50;99.90;;;;;;5069959;28;20520;-63
2022/06/19 01:22:38;;;;;;;11.27;1.92;;;14.50;99.90;;;;;;5071258;28;20032;-63
2022/06/19 01:25:19;;;;;;;12.38;2.50;;;14.50;99.90;;;;;;5069823;28;20059;-63
2022/06/19 01:30:45;;;;;;;15.93;2.35;;;14.50;99.90;;;;;;5068951;28;20040;-63
2022/06/19 01:33:16;;;;;;;13.15;2.22;;;14.50;99.90;;;;;;5070166;28;20047;-64
2022/06/19 01:35:45;;;;;;;8.80;1.60;;;14.50;99.90;;;;;;5071052;28;20039;-62
2022/06/19 01:38:17;;;;;;;9.40;1.98;;;14.50;99.90;;;;;;5069515;28;20084;-63
2022/06/19 01:40:47;;;;;;;8.32;1.35;;;14.50;99.90;;;;;;5070931;28;20044;-63
2022/06/19 01:43:14;;;;;;;9.10;1.52;;;14.50;99.90;;;;;;5070937;28;20036;-63
2022/06/19 01:45:44;;;;;;;8.95;1.70;;;14.40;99.90;;;;;;5070657;28;20136;-62
2022/06/19 01:48:09;;;;;;;9.10;1.77;;;14.40;99.90;;;;;;5065972;28;20051;-63
2022/06/19 01:50:35;;;;;;;9.27;1.58;;;14.40;99.90;;;;;;5068985;28;20032;-63
2022/06/19 01:53:39;;;;;;;7.45;1.27;;;14.40;99.90;;;;;;5070479;28;20415;-63
2022/06/19 01:56:07;;;;;;;10.73;1.55;;;14.40;99.90;;;;;;5011356;28;21869;-63
2022/06/19 01:58:35;;;;;;;8.18;1.40;;;14.40;99.90;;;;;;4995035;28;20144;-63
2022/06/19 02:01:06;;;;;;;9.77;1.80;;;14.40;99.90;;;;;;5011329;28;20040;-63
2022/06/19 02:03:43;;;;;;;9.23;1.88;;;14.40;99.90;;;;;;5011381;28;20099;-63
2022/06/19 02:06:15;;;;;;;9.20;1.50;;;14.40;99.90;;;;;;5027606;28;20143;-64
2022/06/19 02:08:41;;;;;;;8.68;1.85;;;14.30;99.90;;;;;;5027825;28;20045;-63
2022/06/19 02:11:09;;;;;;;11.55;2.00;;;14.30;99.90;;;;;;5027567;28;20037;-63
2022/06/19 02:13:35;;;;;;;13.68;1.70;;;14.30;99.90;;;;;;5011308;28;20053;-62
2022/06/19 02:16:07;;;;;;;9.65;1.83;;;14.30;99.90;;;;;;5011071;28;20129;-64
2022/06/19 02:18:37;;;;;;;8.38;1.52;;;14.40;99.90;;;;;;4994739;28;20135;-62
2022/06/19 02:21:08;;;;;;;8.18;2.03;;;14.30;99.90;;;;;;5011532;28;20125;-64
2022/06/19 02:23:38;;;;;;;11.60;2.25;;;14.30;99.90;;;;;;5027751;28;20112;-62
2022/06/19 02:26:07;;;;;;;11.25;1.77;;;14.30;99.90;;;;;;5027838;28;20083;-63
2022/06/19 02:28:36;;;;;;;11.45;2.10;;;14.30;99.90;;;;;;5011497;28;20106;-63
2022/06/19 02:31:03;;;;;;;9.45;2.08;;;14.30;99.90;;;;;;5039788;28;20048;-63
2022/06/19 02:33:31;;;;;;;10.80;2.13;;;14.30;99.90;;;;;;5068658;28;20384;-62
2022/06/19 02:35:57;;;;;;;14.65;2.35;;;14.30;99.90;;;;;;5070322;28;20098;-64
2022/06/19 02:38:23;;;;;;;11.07;1.95;;;14.30;99.90;;;;;;5069578;28;20052;-64
2022/06/19 02:40:58;;;;;;;8.40;1.50;;;14.30;99.90;;;;;;5069530;28;20442;-63
2022/06/19 02:43:30;;;;;;;11.18;1.67;;;14.30;99.90;;;;;;5068537;28;20440;-64
2022/06/19 02:45:58;;;;;;;12.23;2.72;;;14.30;99.90;;;;;;5068884;28;20372;-62
2022/06/19 02:48:26;;;;;;;12.57;1.95;;;14.30;99.90;;;;;;5068249;28;20173;-63
2022/06/19 02:50:53;;;;;;;11.40;1.83;;;14.30;99.90;;;;;;5069953;28;20055;-64
2022/06/19 02:53:19;;;;;;;17.52;2.00;;;14.30;99.90;;;;;;5069849;28;20043;-63
2022/06/19 02:55:45;;;;;;;11.50;2.10;;;14.30;99.90;;;;;;5068570;28;20067;-62
2022/06/19 02:58:11;;;;;;;10.38;2.33;;;14.30;99.90;;;;;;5069940;28;20048;-63
2022/06/19 03:00:38;;;;;;;12.77;1.85;;;14.30;99.90;;;;;;5069897;28;20033;-63
2022/06/19 03:03:32;;;;;;;11.55;2.17;;;14.30;99.90;;;;;;5068963;28;20511;-63
2022/06/19 03:05:58;;;;;;;13.98;2.53;;;14.30;99.90;;;;;;5068260;28;20048;-63
2022/06/19 03:08:24;;;;;;;12.38;2.10;;;14.30;99.90;;;;;;5069560;28;20403;-63
2022/06/19 03:10:49;;;;;;;10.98;2.25;;;14.20;99.90;;;;;;5068340;28;20047;-62
2022/06/19 03:13:20;;;;;;;16.00;2.05;;;14.20;99.90;;;;;;5069847;28;20036;-62
2022/06/19 03:15:45;;;;;;;13.13;2.88;;;14.10;99.90;;;;;;5069465;28;20043;-63
2022/06/19 03:18:11;;;;;;;13.18;2.05;;;14.10;99.90;;;;;;5068291;28;20036;-64
2022/06/19 03:20:37;;;;;;;13.20;2.72;;;14.10;99.90;;;;;;5069261;28;20028;-64
2022/06/19 03:23:03;;;;;;;14.45;2.55;;;14.10;99.90;;;;;;5068261;28;20032;-62
2022/06/19 03:25:29;;;;;;;17.10;2.50;;;14.10;99.90;;;;;;5069257;28;20120;-63
2022/06/19 03:27:54;;;;;;;14.80;1.90;;;14.10;99.90;;;;;;5069437;28;20045;-64
2022/06/19 03:30:21;;;;;;;15.45;2.30;;;14.00;99.90;;;;;;5069499;28;20039;-64
2022/06/19 03:32:47;;;;;;;21.58;2.40;;;14.00;99.90;;;;;;5068025;28;20044;-63
2022/06/19 03:35:14;;;;;;;15.60;3.10;;;14.10;99.90;;;;;;5069431;28;20124;-63
2022/06/19 03:37:40;;;;;;;15.35;2.50;;;14.10;99.90;;;;;;5066131;28;20519;-64
2022/06/19 03:40:06;;;;;;;11.10;1.85;;;14.10;99.90;;;;;;5067898;28;20033;-64
2022/06/19 03:42:32;;;;;;;15.45;2.00;;;14.00;99.90;;;;;;5067969;28;20045;-63
2022/06/19 03:44:58;;;;;;;16.70;2.25;;;14.10;99.90;;;;;;5068689;28;20102;-63
2022/06/19 03:47:26;;;;;;;12.75;2.33;;;14.10;99.90;;;;;;5067829;28;20036;-63
2022/06/19 03:49:52;;;;;;;17.45;2.33;;;14.10;99.90;;;;;;5068947;28;20047;-63
2022/06/19 03:52:17;;;;;;;15.80;3.17;;;14.10;99.90;;;;;;5069189;28;20048;-62
2022/06/19 03:54:43;;;;;;;17.30;2.53;;;14.10;99.90;;;;;;5072337;28;20044;-63
2022/06/19 03:57:13;;;;;;;15.07;2.80;;;14.20;99.90;;;;;;5071109;28;20056;-64
2022/06/19 03:59:39;;;;;;;15.27;2.47;;;14.10;99.90;;;;;;5071209;28;20406;-63
2022/06/19 04:02:05;;;;;;;14.07;2.45;;;14.20;99.90;;;;;;5072471;28;20483;-63
2022/06/19 04:04:31;;;;;;;12.60;1.73;;;14.20;99.90;;;;;;5071144;28;20032;-63
2022/06/19 04:06:56;;;;;;;9.68;2.13;;;14.20;99.90;;;;;;5072177;28;20105;-63
2022/06/19 04:09:22;;;;;;;13.80;2.08;;;14.20;99.90;;;;;;5054240;28;20059;-62
2022/06/19 04:11:48;;;;;;;9.95;2.00;;;14.20;99.90;;;;;;5072631;28;20033;-62
2022/06/19 04:14:17;;;;;;;11.00;1.67;;;14.20;99.90;;;;;;5070955;28;20134;-63
2022/06/19 04:16:43;;;;;;;10.05;1.77;;;14.20;99.90;;;;;;5071154;28;20055;-62
2022/06/19 04:19:09;;;;;;;10.13;1.88;;;14.10;99.90;;;;;;5070808;28;20048;-63
2022/06/19 04:21:40;;;;;;;13.13;2.30;;;14.10;99.90;;;;;;5070992;28;20048;-62
2022/06/19 04:24:06;;;;;;;12.07;1.95;;;14.10;99.90;;;;;;5072341;28;20036;-61
2022/06/19 04:26:34;;;;;;;10.95;2.25;;;14.10;99.90;;;;;;5070986;28;20127;-64
2022/06/19 04:29:00;;;;;;;10.35;1.67;;;14.10;99.90;;;;;;5072192;28;20063;-62
2022/06/19 04:31:26;;;;;;;7.97;1.60;;;14.10;99.90;;;;;;5072348;28;20052;-63
2022/06/19 04:33:52;;;;;;;6.55;1.67;;;14.20;99.90;;;;;;5071109;28;20044;-63
2022/06/19 04:36:19;;;;;;;6.72;1.73;;;14.10;99.90;;;;;;5071689;28;20119;-63
2022/06/19 04:38:50;;;;;;;8.80;1.70;;;14.20;99.90;;;;;;5070574;28;20044;-63
2022/06/19 04:41:19;;;;;;;9.32;1.60;;;14.20;99.90;;;;;;5070485;28;20119;-63
2022/06/19 04:43:45;;;;;;;5.82;1.10;;;14.20;99.90;;;;;;5071992;28;20128;-64
2022/06/19 04:46:11;;;;;;;5.72;1.30;;;14.30;99.90;;;;;;5071792;28;20119;-63
2022/06/19 04:48:38;;;;;;;8.02;1.60;;;14.30;99.90;;;;;;5070592;28;20057;-64
2022/06/19 04:51:04;;;;;;;8.68;1.88;;;14.30;99.90;;;;;;5070498;28;20072;-62
2022/06/19 04:53:29;;;;;;;9.48;1.67;;;14.30;99.90;;;;;;5070344;28;20076;-63
2022/06/19 04:55:55;;;;;;;9.65;1.45;;;14.40;99.90;;;;;;5070623;28;20068;-63
2022/06/19 04:58:23;;;;;;;8.02;1.60;;;14.40;99.90;;;;;;5071410;28;20053;-63
2022/06/19 05:00:51;;;;;;;7.10;1.63;;;14.40;99.90;;;;;;5071692;28;20049;-62
2022/06/19 05:03:18;;;;;;;12.90;2.10;;;14.50;99.90;;;;;;5069763;28;20102;-62
2022/06/19 05:05:44;;;;;;;10.27;1.95;;;14.50;99.90;;;;;;5071421;28;20045;-63
2022/06/19 05:08:10;;;;;;;7.53;1.83;;;14.50;99.90;;;;;;5071562;28;20037;-64
2022/06/19 05:10:36;;;;;;;8.82;1.80;;;14.50;99.90;;;;;;5069977;28;20407;-62
2022/06/19 05:13:04;;;;;;;10.85;1.83;;;14.40;99.90;;;;;;5071699;28;20036;-62
2022/06/19 05:15:31;;;;;;;11.52;2.42;;;14.40;99.90;;;;;;5069882;28;20036;-62
2022/06/19 05:17:57;;;;;;;11.48;1.80;;;14.40;99.90;;;;;;5070266;28;20473;-64
2022/06/19 05:20:23;;;;;;;12.73;2.53;;;14.40;99.90;;;;;;5071324;28;20133;-63
2022/06/19 05:22:49;;;;;;;10.10;2.03;;;14.40;99.90;;;;;;5069947;28;20044;-63
2022/06/19 05:25:14;;;;;;;13.95;2.10;;;14.40;99.90;;;;;;5071141;28;20028;-63
2022/06/19 05:27:40;;;;;;;10.90;2.08;;;14.30;99.90;;;;;;5069753;28;20036;-62
2022/06/19 05:30:08;;;;;;;8.93;1.52;;;14.30;99.90;;;;;;5067579;28;20115;-63
2022/06/19 05:32:33;;;;;;;11.15;1.73;;;14.20;99.90;;;;;;5070797;28;20067;-63
2022/06/19 05:34:59;;;;;;;10.63;1.85;;;14.10;99.90;;;;;;5069592;28;20483;-63
2022/06/19 05:37:25;;;;;;;13.13;2.22;;;14.00;99.90;;;;;;5070783;28;20087;-63
2022/06/19 05:39:51;;;;;;;10.02;2.10;;;14.00;99.90;;;;;;5070348;28;20521;-63
2022/06/19 05:42:17;;;;;;;10.40;1.98;;;13.90;99.90;;;;;;5069548;28;20040;-62
2022/06/19 05:44:43;;;;;;;8.45;1.70;;;13.90;99.90;;;;;;5069422;28;20487;-63
2022/06/19 05:47:08;;;;;;;12.15;2.35;;;13.90;99.90;;;;;;5069013;28;20037;-63
2022/06/19 05:49:34;;;;;;;11.20;1.80;;;13.90;99.90;;;;;;5069419;28;20071;-63
2022/06/19 05:52:14;;;;;;;10.57;1.85;;;14.00;99.90;;;;;;5069033;28;20173;-64
2022/06/19 05:54:39;;;;;;;14.75;2.15;;;14.00;99.90;;;;;;5070283;28;20045;-65
2022/06/19 05:57:05;;;;;;;10.55;2.10;;;14.00;99.90;;;;;;5070234;28;20040;-63
2022/06/19 05:59:31;;;;;;;10.05;2.00;;;14.00;99.90;;;;;;5068838;28;20032;-63
2022/06/19 06:01:56;;;;;;;12.27;2.67;;;14.00;99.90;;;;;;5068541;28;20040;-63
2022/06/19 06:04:23;;;;;;;13.07;1.60;;;14.00;99.90;;;;;;5052906;28;20148;-63
2022/06/19 06:06:48;;;;;;;11.93;2.10;;;14.00;99.90;;;;;;5069382;28;20566;-62
2022/06/19 06:09:14;;;;;;;11.10;1.40;;;14.00;99.90;;;;;;5070121;28;20123;-63
2022/06/19 06:11:40;;;;;;;9.35;1.70;;;13.90;99.90;;;;;;5070310;28;20113;-63
2022/06/19 06:14:06;;;;;;;8.75;1.95;;;13.90;99.90;;;;;;5070188;28;20080;-63
2022/06/19 06:16:32;;;;;;;10.60;1.50;;;13.90;99.90;;;;;;5069619;28;20576;-63
2022/06/19 06:18:57;;;;;;;12.77;1.77;;;13.90;99.90;;;;;;5069048;28;20987;-63
2022/06/19 06:21:24;;;;;;;6.55;1.40;;;14.00;99.90;;;;;;5070266;28;20120;-64
2022/06/19 06:23:51;;;;;;;6.75;1.92;;;14.00;99.90;;;;;;5068859;28;20041;-62
2022/06/19 06:26:24;;;;;;;9.30;1.83;;;13.90;99.90;;;;;;5068705;28;20119;-63
2022/06/19 06:28:51;;;;;;;7.18;1.63;;;13.90;99.90;;;;;;5068714;28;20044;-64
2022/06/19 06:31:18;;;;;;;8.02;1.40;;;13.80;99.90;;;;;;5070018;28;20043;-62
2022/06/19 06:33:43;;;;;;;7.93;1.40;;;13.80;99.90;;;;;;5069028;28;20033;-63
2022/06/19 06:36:10;;;;;;;7.05;1.58;;;13.80;99.90;;;;;;5068912;28;20086;-63
2022/06/19 06:38:36;;;;;;;5.50;1.20;;;13.90;99.90;;;;;;5068614;28;20141;-62
2022/06/19 06:41:05;;;;;;;9.52;2.05;;;13.90;99.90;;;;;;5070242;28;20472;-64
2022/06/19 06:43:31;;;;;;;8.98;1.25;;;13.90;99.90;;;;;;5069826;28;20438;-63
2022/06/19 06:46:26;;;;;;;9.23;1.55;;;13.90;99.90;;;;;;5070144;28;20036;-63
2022/06/19 06:48:59;;;;;;;6.22;1.45;;;13.90;99.90;;;;;;5069297;28;20049;-63
2022/06/19 06:51:26;;;;;;;6.57;1.30;;;13.90;99.90;;;;;;5068472;28;20459;-63
2022/06/19 06:53:53;;;;;;;7.45;1.58;;;13.90;99.90;;;;;;5068684;28;20051;-63
2022/06/19 06:56:20;;;;;;;7.35;1.55;;;13.90;99.90;;;;;;5068388;28;20040;-62
2022/06/19 06:58:46;;;;;;;7.65;1.42;;;13.90;99.90;;;;;;5069941;28;20080;-63
2022/06/19 07:01:15;;;;;;;11.20;1.67;;;13.90;99.90;;;;;;5068501;28;20068;-62
2022/06/19 07:03:44;;;;;;;6.05;1.30;;;14.00;99.90;;;;;;5069609;28;20036;-62
2022/06/19 07:06:11;;;;;;;8.85;1.70;;;14.00;99.90;;;;;;5069686;28;20029;-65
2022/06/19 07:08:37;;;;;;;7.53;1.70;;;14.10;99.90;;;;;;5068703;28;20510;-62
2022/06/19 07:11:03;;;;;;;9.15;1.70;;;14.10;99.90;;;;;;5069638;28;20491;-62
2022/06/19 07:13:29;;;;;;;14.77;2.53;;;14.10;99.90;;;;;;5068198;28;20041;-63
2022/06/19 07:15:55;;;;;;;10.65;1.60;;;14.10;99.90;;;;;;5069531;28;20033;-62
2022/06/19 07:18:20;;;;;;;9.55;2.45;;;14.10;99.90;;;;;;5068080;28;20044;-62
2022/06/19 07:20:46;;;;;;;7.32;1.63;;;14.10;99.90;;;;;;5066217;28;20498;-62
2022/06/19 07:23:12;;;;;;;8.75;1.65;;;14.20;99.90;;;;;;5067389;28;20044;-63
2022/06/19 07:25:38;;;;;;;9.27;1.75;;;14.20;99.90;;;;;;5067903;28;20040;-64
2022/06/19 07:28:04;;;;;;;12.13;2.30;;;14.20;99.90;;;;;;5070800;28;20138;-63
2022/06/19 07:30:29;;;;;;;10.07;1.63;;;14.20;99.90;;;;;;5072055;28;20437;-63
2022/06/19 07:32:55;;;;;;;13.18;2.28;;;14.20;99.90;;;;;;5070771;28;20037;-62
2022/06/19 07:35:22;;;;;;;12.93;1.80;;;14.20;99.90;;;;;;5072019;28;20817;-63
2022/06/19 07:37:48;;;;;;;11.82;2.15;;;14.10;99.90;;;;;;5071340;28;20056;-63
2022/06/19 07:40:17;;;;;;;11.15;1.90;;;14.10;99.90;;;;;;5072937;28;20036;-62
2022/06/19 07:42:43;;;;;;;10.80;2.05;;;14.10;99.90;;;;;;5072859;28;20048;-62
2022/06/19 07:45:09;;;;;;;10.20;1.98;;;14.10;99.90;;;;;;5071955;28;20033;-63
2022/06/19 07:50:20;;;;;;;11.25;1.80;;;14.10;99.90;;;;;;5072752;28;20605;-62
2022/06/19 07:52:47;;;;;;;15.65;2.20;;;14.10;99.90;;;;;;5071262;28;20032;-63
2022/06/19 07:55:26;;;;;;;15.77;2.17;;;14.10;99.90;;;;;;5071764;28;20101;-63
2022/06/19 07:57:53;;;;;;;10.27;2.40;;;14.10;99.90;;;;;;5070657;28;20381;-62
2022/06/19 08:00:22;;;;;;;10.48;1.95;;;14.10;99.90;;;;;;5072906;28;20120;-64
2022/06/19 08:02:50;;;;;;;14.45;1.80;;;14.10;99.90;;;;;;5072562;28;20036;-63
2022/06/19 08:05:17;;;;;;;13.85;2.28;;;14.10;99.90;;;;;;5071608;28;20032;-62
2022/06/19 08:07:43;;;;;;;13.27;2.13;;;14.20;99.90;;;;;;5071445;28;20039;-63
2022/06/19 08:10:13;;;;;;;13.63;2.00;;;14.20;99.90;;;;;;5071432;28;20048;-64
2022/06/19 08:12:39;;;;;;;12.70;1.90;;;14.30;99.90;;;;;;5072172;28;20116;-63
2022/06/19 08:15:07;;;;;;;11.63;2.00;;;14.30;99.90;;;;;;5072315;28;20115;-64
2022/06/19 08:17:33;;;;;;;13.32;2.22;;;14.40;99.90;;;;;;5072572;28;20043;-63
2022/06/19 08:19:59;;;;;;;10.65;2.15;;;14.50;99.90;;;;;;5072252;28;20490;-63
2022/06/19 08:22:24;;;;;;;13.15;2.03;;;14.60;99.90;;;;;;5071151;28;20041;-63
2022/06/19 08:24:50;;;;;;;11.65;2.28;;;14.60;99.90;;;;;;5072622;28;20107;-63
2022/06/19 08:27:16;;;;;;;9.15;1.73;;;14.60;99.90;;;;;;5072321;28;20028;-63
2022/06/19 08:29:41;;;;;;;13.50;2.30;;;14.50;99.90;;;;;;5071598;28;20204;-63
2022/06/19 08:32:07;;;;;;;13.20;3.03;;;14.60;99.90;;;;;;5072183;28;20044;-63
2022/06/19 08:34:33;;;;;;;10.68;2.08;;;14.60;99.90;;;;;;5072443;28;20093;-63
2022/06/19 08:37:02;;;;;;;13.00;2.83;;;14.60;99.90;;;;;;5070902;28;20083;-62
2022/06/19 08:39:28;;;;;;;10.55;1.90;;;14.50;99.90;;;;;;5069900;28;20403;-62
2022/06/19 08:42:12;;;;;;;16.45;2.67;;;14.40;99.90;;;;;;5070893;28;20048;-63
2022/06/19 08:44:55;;;;;;;12.52;2.70;;;14.40;99.90;;;;;;5071006;28;20033;-63
2022/06/19 08:47:30;;;;;;;;;;;14.30;99.90;;;;;;5071375;28;20467;-62
2022/06/19 08:50:12;;;;;;;9.63;2.25;;;14.30;99.90;;;;;;5070792;28;19927;-63
2022/06/19 08:52:54;;;;;;;16.45;2.60;;;14.30;99.90;;;;;;5070133;28;20059;-64
2022/06/19 08:55:35;;;;;;;14.18;2.40;;;14.30;99.90;;;;;;5070767;28;20487;-63
2022/06/19 08:58:04;;;;;;;13.75;2.22;;;14.30;99.90;;;;;;5070574;28;20062;-63
2022/06/19 09:00:56;;;;;;;14.52;2.70;;;14.30;99.90;;;;;;5070382;28;20075;-63
2022/06/19 09:06:33;;;;;;;13.20;2.38;;;14.40;99.90;;;;;;5070208;28;20102;-63
2022/06/19 09:09:15;;;;;;;13.45;2.15;;;14.40;99.90;;;;;;5052535;28;20040;-63
2022/06/19 09:11:43;;;;;;;13.45;2.17;;;14.40;99.90;;;;;;5067188;28;20040;-64
2022/06/19 09:14:57;;;;;;;11.23;2.28;;;14.40;99.90;;;;;;5069854;28;20177;-63
2022/06/19 09:17:33;;;;;;;12.63;2.35;;;14.40;99.90;;;;;;5066285;28;20091;-63
2022/06/19 09:20:22;;;;;;;13.63;2.03;;;14.50;99.90;;;;;;5071060;28;20032;-63
2022/06/19 09:22:55;;;;;;;10.38;1.75;;;14.50;99.90;;;;;;5069782;28;20395;-64
2022/06/19 09:25:39;;;;;;;9.35;1.95;;;14.50;99.90;;;;;;5070501;28;20132;-63
2022/06/19 09:28:09;;;;;;;16.50;2.83;;;14.50;99.90;;;;;;5069446;28;20343;-63
2022/06/19 09:30:42;;;;;;;12.25;1.85;;;14.60;99.90;;;;;;5069191;28;20747;-64
2022/06/19 09:33:14;;;;;;;10.82;2.42;;;14.70;99.90;;;;;;5071381;28;20058;-62
2022/06/19 09:36:00;;;;;;;12.07;1.95;;;14.70;99.90;;;;;;5069500;28;20097;-62
2022/06/19 09:38:48;;;;;;;10.75;1.80;;;14.80;99.90;;;;;;5069155;28;20113;-62
2022/06/19 09:41:21;;;;;;;13.75;2.05;;;14.80;99.90;;;;;;5052793;28;20036;-63
2022/06/19 09:43:57;;;;;;;12.10;1.92;;;14.80;99.90;;;;;;5070481;28;20458;-63
2022/06/19 09:46:28;;;;;;;12.63;2.13;;;14.70;99.90;;;;;;5069439;28;20059;-63
2022/06/19 09:49:08;;;;;;;13.38;2.50;;;14.70;99.90;;;;;;5069226;28;20103;-63
2022/06/19 09:51:50;;;;;;;8.55;1.52;;;14.60;99.90;;;;;;5069963;28;20059;-63
2022/06/19 09:54:34;;;;;;;9.77;1.50;;;14.70;99.90;;;;;;5071074;28;20094;-63
2022/06/19 09:57:11;;;;;;;8.98;1.58;;;14.80;99.90;;;;;;5070609;28;20062;-63
2022/06/19 09:59:55;;;;;;;11.10;1.60;;;14.90;99.90;;;;;;5069271;28;20131;-63
2022/06/19 10:02:32;;;;;;;9.68;1.70;;;14.90;99.90;;;;;;5070710;28;20047;-64
2022/06/19 10:05:03;;;;;;;7.03;1.42;;;14.90;99.90;;;;;;5070436;28;20041;-62
2022/06/19 10:07:51;;;;;;;10.63;2.22;;;15.00;99.90;;;;;;5070500;28;20376;-63
2022/06/19 10:10:35;;;;;;;11.95;2.15;;;15.10;99.90;;;;;;5069453;28;20048;-63
2022/06/19 10:13:05;;;;;;;11.07;1.70;;;15.10;99.90;;;;;;5070368;28;20043;-63
2022/06/19 10:15:34;;;;;;;9.35;2.00;;;15.20;99.90;;;;;;5068903;28;20044;-62
2022/06/19 10:18:05;;;;;;;5.75;1.55;;;15.40;99.90;;;;;;5070124;28;20271;-63
2022/06/19 10:21:01;;;;;;;6.85;1.63;;;15.60;99.90;;;;;;5070173;28;20391;-64
2022/06/19 10:23:33;;;;;;;7.53;1.75;;;15.70;99.90;;;;;;5066939;28;20056;-64
2022/06/19 10:26:14;;;;;;;7.90;1.80;;;15.80;99.90;;;;;;5070060;28;20483;-63
2022/06/19 10:29:07;;;;;;;8.88;2.08;;;16.00;99.90;;;;;;5070189;28;20403;-62
2022/06/19 10:31:53;;;;;;;5.97;1.25;;;16.10;99.90;;;;;;5070068;28;20036;-63
2022/06/19 10:34:31;;;;;;;11.48;1.80;;;16.10;99.90;;;;;;5067728;28;20072;-63
2022/06/19 10:37:20;;;;;;;5.57;1.20;;;16.20;99.90;;;;;;5069675;28;20048;-63
2022/06/19 10:40:07;;;;;;;5.07;1.30;;;16.30;99.90;;;;;;5068969;28;20052;-64
2022/06/19 10:42:50;;;;;;;8.85;2.60;;;16.30;99.90;;;;;;5069973;28;20078;-63
2022/06/19 10:45:32;;;;;;;6.68;1.45;;;16.40;99.90;;;;;;5068663;28;20050;-63
2022/06/19 10:48:28;;;;;;;8.80;1.73;;;16.40;99.90;;;;;;5068085;28;20036;-62
2022/06/19 10:51:05;;;;;;;6.95;1.38;;;16.30;99.90;;;;;;5068357;28;20040;-63
2022/06/19 10:54:10;;;;;;;8.15;1.48;;;16.20;99.90;;;;;;5068442;28;20059;-65
2022/06/19 10:56:58;;;;;;;8.98;1.77;;;16.30;99.90;;;;;;5069807;28;20041;-63
2022/06/19 10:59:25;;;;;;;9.18;1.58;;;16.20;99.90;;;;;;5069668;28;20032;-63
2022/06/19 11:04:59;;;;;;;7.07;1.25;;;16.20;99.90;;;;;;5067110;28;20040;-63
2022/06/19 11:07:26;;;;;;;10.13;1.63;;;16.10;99.90;;;;;;5068214;28;20136;-63
2022/06/19 11:10:00;;;;;;;7.78;1.50;;;16.10;99.90;;;;;;5067972;28;20572;-63
2022/06/19 11:12:43;;;;;;;7.93;1.55;;;16.00;99.90;;;;;;5067727;28;20399;-63
2022/06/19 11:15:30;;;;;;;7.20;1.23;;;15.90;99.90;;;;;;5069484;28;20043;-63
2022/06/19 11:18:19;;;;;;;10.10;2.40;;;15.80;99.90;;;;;;5069446;28;20050;-64
2022/06/19 11:21:14;;;;;;;10.48;1.83;;;15.80;99.90;;;;;;5067231;28;20044;-64
2022/06/19 11:23:53;;;;;;;6.65;1.27;;;15.70;99.90;;;;;;5069466;28;20040;-63
2022/06/19 11:26:26;;;;;;;10.90;2.28;;;15.70;99.90;;;;;;5069348;28;20055;-63
2022/06/19 11:29:21;;;;;;;8.35;1.42;;;15.70;99.90;;;;;;5067876;28;20079;-63
2022/06/19 11:32:02;;;;;;;6.93;1.20;;;15.80;99.90;;;;;;5064409;28;20056;-63
2022/06/19 11:34:44;;;;;;;5.88;1.20;;;15.90;99.90;;;;;;5069012;28;20040;-64
2022/06/19 11:37:15;;;;;;;6.90;1.30;;;16.00;99.90;;;;;;5068123;28;20065;-64
2022/06/19 11:39:44;;;;;;;7.57;1.73;;;16.00;99.90;;;;;;5069443;28;20044;-62
2022/06/19 11:42:19;;;;;;;6.95;1.20;;;16.00;99.90;;;;;;5068276;28;20029;-64
2022/06/19 11:44:54;;;;;;;6.72;1.15;;;16.00;99.90;;;;;;5067932;28;20064;-63
2022/06/19 11:47:46;;;;;;;5.43;1.08;;;16.10;99.90;;;;;;5069385;28;20055;-64
2022/06/19 11:50:23;;;;;;;11.00;1.98;;;16.10;99.90;;;;;;5067734;28;20513;-63
2022/06/19 11:53:23;;;;;;;8.40;1.30;;;16.10;99.90;;;;;;5068281;28;20394;-63
2022/06/19 11:56:20;;;;;;;10.98;1.60;;;16.10;99.90;;;;;;5062005;28;20110;-63
2022/06/19 11:58:54;;;;;;;4.43;1.20;;;15.90;99.90;;;;;;5068369;28;20508;-63
2022/06/19 12:01:21;;;;;;;4.85;1.23;;;15.90;99.90;;;;;;5068125;28;20044;-63
2022/06/19 12:03:48;;;;;;;6.30;1.10;;;15.80;99.90;;;;;;5068932;28;20388;-64
2022/06/19 12:06:17;;;;;;;7.00;1.42;;;15.80;99.90;;;;;;5069290;28;20052;-63
2022/06/19 12:08:57;;;;;;;3.65;0.98;;;15.80;99.90;;;;;;5068996;28;20048;-63
2022/06/19 12:12:05;;;;;;;6.32;0.95;;;15.80;99.90;;;;;;5069217;28;20068;-64
2022/06/19 12:14:34;;;;;;;5.63;0.90;;;15.80;99.90;;;;;;5061393;28;20037;-62
2022/06/19 12:17:16;;;;;;;4.25;0.90;;;15.90;99.90;;;;;;5071258;28;20040;-63
2022/06/19 12:19:53;;;;;;;5.93;1.08;;;16.10;99.90;;;;;;5071098;28;20040;-64
2022/06/19 12:22:26;;;;;;;6.32;1.17;;;16.40;99.90;;;;;;5071069;28;20040;-63
2022/06/19 12:25:07;;;;;;;3.03;1.13;;;16.70;99.90;;;;;;5072492;28;20044;-63
2022/06/19 12:27:39;;;;;;;7.30;1.60;;;17.00;99.90;;;;;;5072350;28;20037;-63
2022/06/19 12:30:20;;;;;;;4.22;1.27;;;17.30;99.90;;;;;;5071089;28;20115;-63
2022/06/19 12:32:49;;;;;;;5.20;0.90;;;17.40;99.90;;;;;;5071173;28;20471;-63
2022/06/19 12:35:27;;;;;;;3.92;1.00;;;17.60;99.90;;;;;;5072120;28;20048;-63
2022/06/19 12:37:52;;;;;;;4.30;1.00;;;17.70;99.90;;;;;;5072195;28;20098;-64
2022/06/19 12:40:22;;;;;;;2.85;0.88;;;17.80;99.90;;;;;;5069742;28;20045;-64
2022/06/19 12:43:02;;;;;;;6.25;1.52;;;17.80;99.90;;;;;;5072453;28;20082;-62
2022/06/19 12:45:38;;;;;;;3.97;0.80;;;17.80;99.90;;;;;;5071108;28;20383;-63
2022/06/19 12:48:26;;;;;;;3.50;0.80;;;17.70;99.90;;;;;;5072163;28;20032;-64
2022/06/19 12:51:04;;;;;;;4.78;1.23;;;17.70;99.90;;;;;;5071826;28;20154;-63
2022/06/19 12:53:49;;;;;;;2.92;0.90;;;17.60;99.90;;;;;;5067186;28;20414;-65
2022/06/19 12:56:33;;;;;;;4.50;0.95;;;17.50;99.90;;;;;;5071375;28;20036;-63
2022/06/19 12:59:21;;;;;;;5.05;0.70;;;17.40;99.90;;;;;;5069067;28;20045;-64
2022/06/19 13:01:59;;;;;;;5.20;0.90;;;17.40;99.90;;;;;;5070077;28;20033;-63
2022/06/19 13:04:46;;;;;;;5.10;0.85;;;17.30;99.90;;;;;;5070851;28;20399;-62
2022/06/19 13:07:41;;;;;;;2.53;0.85;;;17.30;99.90;;;;;;5071317;28;20033;-65
2022/06/19 13:10:36;;;;;;;2.15;0.73;;;17.20;99.90;;;;;;5054347;28;20055;-64
2022/06/19 13:13:29;;;;;;;2.95;0.80;;;17.10;99.90;;;;;;5069765;28;20043;-63
2022/06/19 13:15:59;;;;;;;1.95;0.80;;;17.10;99.90;;;;;;5031936;28;20049;-63